createdAt,value
2017-08-24T00:01:29.013Z,12.40
2017-08-24T00:03:55.055Z,12.30
2017-08-24T00:06:21.165Z,12.40
2017-08-24T00:08:47.229Z,12.30
2017-08-24T00:11:13.289Z,12.40
2017-08-24T00:13:39.395Z,12.40
2017-08-24T00:16:05.450Z,12.40
2017-08-24T00:18:31.519Z,12.40
2017-08-24T00:20:57.604Z,12.40
2017-08-24T00:23:23.651Z,12.30
2017-08-24T00:25:49.719Z,12.30
2017-08-24T00:28:15.817Z,12.30
2017-08-24T00:30:41.909Z,12.40
2017-08-24T00:33:07.951Z,12.40
2017-08-24T00:35:34.036Z,12.40
2017-08-24T00:38:00.122Z,12.30
2017-08-24T00:40:26.189Z,12.20
2017-08-24T00:42:52.275Z,12.20
2017-08-24T00:45:18.356Z,12.20
2017-08-24T00:47:44.433Z,12.30
2017-08-24T00:50:10.515Z,12.30
2017-08-24T00:52:36.589Z,12.20
2017-08-24T00:55:02.652Z,12.20
2017-08-24T00:57:28.749Z,12.20
2017-08-24T00:59:54.824Z,12.30
2017-08-24T01:02:20.883Z,12.30
2017-08-24T01:04:47.029Z,12.20
2017-08-24T01:07:13.069Z,12.20
2017-08-24T01:09:39.141Z,12.20
2017-08-24T01:12:05.234Z,12.10
2017-08-24T01:14:31.352Z,12.00
2017-08-24T01:16:57.414Z,12.00
2017-08-24T01:19:23.510Z,12.00
2017-08-24T01:21:49.587Z,12.00
2017-08-24T01:24:15.656Z,11.90
2017-08-24T01:26:41.768Z,11.90
2017-08-24T01:29:07.810Z,12.00
2017-08-24T01:31:33.930Z,12.00
2017-08-24T01:34:00.021Z,12.00
2017-08-24T01:36:26.082Z,11.90
2017-08-24T01:38:52.172Z,11.90
2017-08-24T01:41:18.260Z,11.80
2017-08-24T01:43:44.319Z,11.70
2017-08-24T01:46:10.360Z,11.60
2017-08-24T01:48:36.441Z,11.70
2017-08-24T01:51:09.351Z,11.60
2017-08-24T01:53:35.418Z,11.60
2017-08-24T01:56:01.494Z,11.60
2017-08-24T01:58:27.555Z,11.60
2017-08-24T02:00:53.612Z,11.60
2017-08-24T02:03:19.803Z,11.60
2017-08-24T02:05:45.850Z,11.60
2017-08-24T02:08:11.916Z,11.50
2017-08-24T02:10:37.988Z,11.50
2017-08-24T02:13:04.046Z,11.50
2017-08-24T02:15:30.106Z,11.50
2017-08-24T02:17:56.191Z,11.40
2017-08-24T02:20:22.279Z,11.50
2017-08-24T02:22:48.344Z,11.50
2017-08-24T02:25:14.459Z,11.50
2017-08-24T02:27:40.515Z,11.50
2017-08-24T02:30:06.604Z,11.50
2017-08-24T02:32:32.705Z,11.50
2017-08-24T02:34:58.755Z,11.50
2017-08-24T02:37:24.869Z,11.50
2017-08-24T02:39:50.961Z,11.50
2017-08-24T02:42:17.030Z,11.40
2017-08-24T02:44:43.080Z,11.40
2017-08-24T02:47:09.157Z,11.40
2017-08-24T02:49:35.221Z,11.40
2017-08-24T02:52:01.310Z,11.50
2017-08-24T02:54:27.417Z,11.50
2017-08-24T02:56:53.469Z,11.50
2017-08-24T02:59:19.529Z,11.50
2017-08-24T03:01:45.623Z,11.40
2017-08-24T03:04:11.725Z,11.40
2017-08-24T03:06:37.807Z,11.50
2017-08-24T03:09:03.888Z,11.50
2017-08-24T03:11:29.967Z,11.50
2017-08-24T03:13:56.017Z,11.40
2017-08-24T03:16:22.129Z,11.40
2017-08-24T03:18:48.213Z,11.40
2017-08-24T03:21:14.358Z,11.40
2017-08-24T03:23:40.493Z,11.40
2017-08-24T03:26:06.558Z,11.40
2017-08-24T03:28:32.617Z,11.40
2017-08-24T03:30:58.719Z,11.40
2017-08-24T03:33:24.794Z,11.40
2017-08-24T03:35:50.851Z,11.30
2017-08-24T03:38:16.931Z,11.30
2017-08-24T03:40:42.999Z,11.30
2017-08-24T03:43:09.076Z,11.40
2017-08-24T03:45:35.187Z,11.30
2017-08-24T03:48:01.289Z,11.30
2017-08-24T03:50:27.385Z,11.20
2017-08-24T03:52:53.461Z,11.10
2017-08-24T03:55:19.547Z,11.10
2017-08-24T03:57:45.631Z,11.00
2017-08-24T04:00:12.487Z,11.10
2017-08-24T04:02:38.552Z,11.10
2017-08-24T04:05:04.661Z,11.20
2017-08-24T04:07:30.909Z,11.40
2017-08-24T04:09:56.983Z,11.30
2017-08-24T04:12:23.253Z,11.30
2017-08-24T04:14:49.341Z,11.40
2017-08-24T04:17:15.417Z,11.50
2017-08-24T04:19:41.495Z,11.50
2017-08-24T04:22:07.575Z,11.60
2017-08-24T04:24:33.671Z,11.70
2017-08-24T04:26:59.737Z,11.70
2017-08-24T04:29:25.855Z,11.60
2017-08-24T04:31:51.947Z,11.70
2017-08-24T04:34:18.039Z,11.70
2017-08-24T04:36:44.126Z,11.80
2017-08-24T04:39:10.251Z,11.90
2017-08-24T04:41:36.348Z,12.00
2017-08-24T04:44:02.437Z,12.00
2017-08-24T04:46:28.566Z,12.10
2017-08-24T04:48:54.691Z,12.20
2017-08-24T04:51:20.893Z,12.30
2017-08-24T04:53:47.065Z,12.40
2017-08-24T04:56:13.125Z,12.50
2017-08-24T04:58:39.239Z,12.70
2017-08-24T05:01:05.351Z,12.70
2017-08-24T05:03:31.467Z,12.80
2017-08-24T05:05:57.602Z,12.90
2017-08-24T05:08:23.697Z,13.20
2017-08-24T05:10:49.753Z,13.40
2017-08-24T05:13:15.863Z,13.60
2017-08-24T05:15:41.921Z,13.80
2017-08-24T05:18:07.992Z,13.90
2017-08-24T05:20:34.086Z,14.10
2017-08-24T05:23:00.187Z,14.10
2017-08-24T05:25:26.297Z,14.20
2017-08-24T05:27:52.385Z,14.30
2017-08-24T05:30:18.463Z,14.50
2017-08-24T05:32:44.557Z,14.70
2017-08-24T05:35:10.683Z,14.70
2017-08-24T05:37:36.790Z,14.80
2017-08-24T05:40:02.850Z,14.90
2017-08-24T05:42:29.244Z,15.00
2017-08-24T05:44:55.332Z,15.00
2017-08-24T05:47:21.426Z,15.30
2017-08-24T05:49:47.559Z,15.50
2017-08-24T05:52:13.660Z,15.70
2017-08-24T05:54:39.734Z,15.70
2017-08-24T05:57:05.857Z,16.00
2017-08-24T05:59:31.977Z,16.10
2017-08-24T06:01:58.061Z,15.80
2017-08-24T06:04:24.159Z,16.00
2017-08-24T06:06:50.258Z,16.10
2017-08-24T06:09:16.322Z,16.60
2017-08-24T06:11:42.400Z,16.80
2017-08-24T06:14:08.493Z,17.00
2017-08-24T06:16:34.563Z,16.90
2017-08-24T06:19:00.648Z,16.70
2017-08-24T06:21:26.742Z,16.90
2017-08-24T06:23:52.828Z,17.00
2017-08-24T06:26:18.908Z,17.10
2017-08-24T06:28:44.989Z,17.20
2017-08-24T06:31:11.076Z,17.40
2017-08-24T06:33:37.143Z,17.50
2017-08-24T06:36:03.234Z,17.50
2017-08-24T06:38:29.347Z,17.80
2017-08-24T06:40:55.461Z,18.00
2017-08-24T06:43:21.545Z,18.20
2017-08-24T06:45:47.646Z,18.30
2017-08-24T06:48:13.852Z,18.20
2017-08-24T06:50:39.958Z,18.50
2017-08-24T06:53:06.083Z,18.50
2017-08-24T06:55:32.168Z,18.60
2017-08-24T06:57:58.276Z,18.20
2017-08-24T07:00:24.382Z,18.60
2017-08-24T07:02:50.507Z,18.60
2017-08-24T07:05:16.607Z,18.60
2017-08-24T07:07:42.699Z,19.10
2017-08-24T07:10:08.802Z,19.10
2017-08-24T07:12:34.890Z,19.20
2017-08-24T07:15:01.020Z,19.10
2017-08-24T07:17:27.152Z,19.20
2017-08-24T07:19:53.289Z,19.60
2017-08-24T07:22:19.428Z,19.80
2017-08-24T07:24:45.516Z,20.10
2017-08-24T07:27:11.588Z,20.30
2017-08-24T07:29:37.669Z,20.50
2017-08-24T07:32:03.748Z,20.70
2017-08-24T07:34:29.829Z,20.90
2017-08-24T07:36:55.949Z,21.20
2017-08-24T07:39:22.047Z,21.10
2017-08-24T07:41:48.122Z,21.10
2017-08-24T07:44:14.214Z,21.30
2017-08-24T07:46:40.280Z,21.30
2017-08-24T07:49:06.364Z,21.60
2017-08-24T07:51:32.430Z,21.50
2017-08-24T07:53:58.517Z,21.70
2017-08-24T07:56:24.622Z,22.10
2017-08-24T07:58:50.722Z,21.90
2017-08-24T08:01:16.824Z,22.10
2017-08-24T08:03:43.035Z,22.00
2017-08-24T08:06:09.103Z,22.00
2017-08-24T08:08:35.187Z,21.90
2017-08-24T08:11:01.344Z,21.90
2017-08-24T08:13:27.441Z,22.30
2017-08-24T08:15:53.542Z,22.10
2017-08-24T08:18:19.712Z,22.40
2017-08-24T08:20:45.793Z,22.10
2017-08-24T08:23:11.880Z,22.10
2017-08-24T08:25:37.984Z,21.80
2017-08-24T08:28:04.046Z,21.90
2017-08-24T08:30:30.124Z,22.70
2017-08-24T08:32:56.208Z,23.10
2017-08-24T08:35:22.276Z,23.20
2017-08-24T08:37:48.359Z,23.10
2017-08-24T08:40:14.408Z,22.60
2017-08-24T08:42:40.460Z,22.70
2017-08-24T08:45:06.579Z,23.20
2017-08-24T08:47:32.698Z,23.50
2017-08-24T08:49:58.758Z,23.50
2017-08-24T08:52:24.854Z,23.60
2017-08-24T08:54:50.926Z,23.70
2017-08-24T08:57:17.033Z,24.00
2017-08-24T08:59:43.148Z,24.30
2017-08-24T09:02:09.221Z,24.40
2017-08-24T09:04:35.327Z,24.00
2017-08-24T09:07:01.392Z,24.10
2017-08-24T09:09:27.462Z,24.40
2017-08-24T09:11:53.546Z,25.00
2017-08-24T09:14:19.632Z,24.80
2017-08-24T09:16:45.748Z,24.60
2017-08-24T09:19:11.795Z,24.70
2017-08-24T09:21:37.881Z,24.80
2017-08-24T09:24:03.978Z,25.10
2017-08-24T09:26:30.074Z,24.80
2017-08-24T09:28:56.211Z,25.00
2017-08-24T09:31:22.300Z,25.40
2017-08-24T09:33:48.382Z,25.60
2017-08-24T09:36:14.448Z,25.80
2017-08-24T09:38:40.739Z,25.80
2017-08-24T09:41:06.845Z,25.70
2017-08-24T09:43:32.949Z,25.60
2017-08-24T09:45:59.077Z,25.80
2017-08-24T09:48:25.168Z,26.20
2017-08-24T09:50:51.240Z,26.00
2017-08-24T09:53:17.371Z,26.30
2017-08-24T09:55:43.492Z,26.30
2017-08-24T09:58:09.598Z,26.60
2017-08-24T10:00:35.673Z,26.30
2017-08-24T10:03:01.781Z,26.60
2017-08-24T10:05:27.905Z,26.70
2017-08-24T10:07:53.984Z,26.60
2017-08-24T10:10:20.119Z,26.60
2017-08-24T10:12:46.199Z,27.10
2017-08-24T10:15:12.267Z,26.40
2017-08-24T10:17:38.366Z,26.30
2017-08-24T10:20:04.481Z,26.10
2017-08-24T10:22:30.564Z,26.20
2017-08-24T10:24:56.654Z,26.90
2017-08-24T10:27:22.780Z,26.90
2017-08-24T10:29:48.945Z,27.10
2017-08-24T10:32:14.997Z,26.80
2017-08-24T10:34:41.099Z,27.20
2017-08-24T10:37:07.153Z,27.50
2017-08-24T10:39:33.234Z,27.20
2017-08-24T10:42:00.137Z,27.30
2017-08-24T10:44:26.217Z,27.50
2017-08-24T10:46:52.269Z,27.80
2017-08-24T10:49:18.409Z,27.60
2017-08-24T10:51:44.504Z,27.90
2017-08-24T10:54:10.595Z,27.90
2017-08-24T10:56:36.717Z,28.10
2017-08-24T10:59:02.807Z,28.20
2017-08-24T11:01:28.922Z,28.30
2017-08-24T11:03:55.036Z,27.50
2017-08-24T11:06:21.121Z,27.40
2017-08-24T11:08:47.203Z,27.70
2017-08-24T11:11:13.281Z,28.20
2017-08-24T11:13:39.379Z,28.80
2017-08-24T11:16:05.518Z,28.20
2017-08-24T11:18:31.653Z,27.90
2017-08-24T11:20:57.697Z,28.10
2017-08-24T11:23:23.953Z,28.30
2017-08-24T11:25:50.051Z,28.30
2017-08-24T11:28:16.163Z,28.60
2017-08-24T11:30:42.267Z,28.80
2017-08-24T11:33:08.392Z,28.90
2017-08-24T11:35:34.465Z,28.80
2017-08-24T11:38:00.598Z,29.20
2017-08-24T11:40:26.667Z,29.10
2017-08-24T11:42:52.766Z,29.60
2017-08-24T11:45:18.860Z,30.10
2017-08-24T11:47:45.001Z,29.90
2017-08-24T11:50:11.068Z,29.90
2017-08-24T11:52:37.163Z,30.20
2017-08-24T11:55:03.270Z,30.20
2017-08-24T11:57:29.348Z,29.90
2017-08-24T11:59:55.474Z,30.00
2017-08-24T12:02:21.542Z,30.50
2017-08-24T12:04:47.621Z,31.20
2017-08-24T12:07:13.712Z,31.20
2017-08-24T12:09:39.785Z,30.60
2017-08-24T12:12:05.886Z,31.40
2017-08-24T12:14:32.016Z,32.00
2017-08-24T12:16:58.179Z,32.50
2017-08-24T12:19:24.301Z,32.30
2017-08-24T12:21:50.381Z,31.80
2017-08-24T12:24:16.457Z,32.40
2017-08-24T12:26:42.541Z,32.60
2017-08-24T12:29:08.659Z,32.80
2017-08-24T12:31:34.734Z,33.20
2017-08-24T12:34:00.828Z,33.50
2017-08-24T12:36:26.924Z,34.10
2017-08-24T12:38:53.024Z,34.30
2017-08-24T12:41:19.163Z,34.70
2017-08-24T12:43:45.234Z,34.80
2017-08-24T12:46:11.341Z,34.40
2017-08-24T12:48:37.474Z,34.20
2017-08-24T12:51:03.587Z,33.40
2017-08-24T12:53:29.689Z,33.60
2017-08-24T12:55:55.813Z,33.00
2017-08-24T12:58:21.920Z,33.40
2017-08-24T13:00:48.040Z,33.50
2017-08-24T13:03:14.146Z,34.40
2017-08-24T13:05:40.250Z,34.50
2017-08-24T13:08:06.329Z,33.40
2017-08-24T13:10:32.437Z,33.50
2017-08-24T13:12:58.498Z,34.20
2017-08-24T13:15:24.581Z,33.70
2017-08-24T13:17:50.659Z,33.70
2017-08-24T13:20:16.719Z,33.90
2017-08-24T13:22:42.826Z,33.30
2017-08-24T13:25:08.927Z,32.50
2017-08-24T13:27:35.005Z,32.00
2017-08-24T13:30:01.160Z,32.60
2017-08-24T13:32:27.252Z,33.00
2017-08-24T13:34:53.311Z,33.30
2017-08-24T13:37:19.388Z,34.20
2017-08-24T13:39:45.503Z,34.30
2017-08-24T13:42:11.641Z,34.90
2017-08-24T13:44:37.720Z,33.70
2017-08-24T13:47:03.824Z,32.40
2017-08-24T13:49:29.921Z,32.80
2017-08-24T13:51:56.004Z,33.00
2017-08-24T13:54:22.136Z,33.10
2017-08-24T13:56:48.234Z,32.60
2017-08-24T13:59:14.307Z,33.20
2017-08-24T14:01:40.373Z,32.40
2017-08-24T14:04:06.488Z,32.10
2017-08-24T14:06:32.580Z,31.70
2017-08-24T14:08:58.627Z,31.40
2017-08-24T14:11:24.788Z,31.70
2017-08-24T14:13:50.899Z,31.20
2017-08-24T14:16:16.996Z,31.70
2017-08-24T14:18:43.096Z,32.10
2017-08-24T14:21:09.168Z,32.00
2017-08-24T14:23:35.283Z,31.90
2017-08-24T14:26:01.454Z,32.00
2017-08-24T14:28:27.564Z,32.50
2017-08-24T14:30:53.668Z,33.20
2017-08-24T14:33:19.794Z,33.10
2017-08-24T14:35:45.863Z,33.80
2017-08-24T14:38:11.974Z,34.00
2017-08-24T14:40:38.079Z,34.20
2017-08-24T14:43:04.172Z,33.20
2017-08-24T14:45:30.289Z,31.80
2017-08-24T14:47:56.661Z,31.00
2017-08-24T14:50:22.748Z,29.90
2017-08-24T14:52:48.871Z,29.60
2017-08-24T14:55:15.003Z,29.50
2017-08-24T14:57:41.141Z,29.60
2017-08-24T15:00:08.112Z,28.80
2017-08-24T15:02:34.242Z,29.20
2017-08-24T15:05:00.360Z,28.50
2017-08-24T15:07:26.457Z,27.90
2017-08-24T15:09:52.591Z,28.50
2017-08-24T15:12:18.694Z,29.30
2017-08-24T15:14:44.880Z,29.70
2017-08-24T15:17:11.045Z,30.20
2017-08-24T15:19:37.172Z,31.40
2017-08-24T15:22:03.522Z,31.70
2017-08-24T15:24:29.655Z,32.80
2017-08-24T15:26:55.782Z,33.40
2017-08-24T15:29:21.938Z,33.30
2017-08-24T15:31:48.042Z,33.50
2017-08-24T15:34:14.144Z,34.10
2017-08-24T15:36:40.286Z,34.30
2017-08-24T15:39:06.400Z,34.50
2017-08-24T15:41:32.522Z,33.90
2017-08-24T15:43:58.662Z,33.20
2017-08-24T15:46:24.790Z,31.40
2017-08-24T15:48:50.920Z,30.50
2017-08-24T15:51:17.264Z,29.90
2017-08-24T15:53:43.368Z,29.00
2017-08-24T15:56:09.492Z,28.30
2017-08-24T15:58:35.656Z,27.70
2017-08-24T16:01:01.742Z,27.10
2017-08-24T16:03:27.908Z,27.60
2017-08-24T16:05:53.987Z,28.30
2017-08-24T16:08:20.115Z,29.00
2017-08-24T16:10:46.292Z,29.60
2017-08-24T16:13:12.426Z,29.00
2017-08-24T16:15:38.513Z,29.00
2017-08-24T16:18:04.622Z,28.60
2017-08-24T16:20:30.816Z,28.30
2017-08-24T16:22:56.927Z,28.40
2017-08-24T16:25:23.011Z,27.60
2017-08-24T16:27:49.164Z,27.30
2017-08-24T16:30:15.259Z,27.50
2017-08-24T16:32:41.341Z,27.30
2017-08-24T16:35:07.476Z,27.20
2017-08-24T16:37:33.614Z,27.00
2017-08-24T16:39:59.714Z,27.00
2017-08-24T16:42:25.813Z,27.40
2017-08-24T16:44:51.894Z,27.60
2017-08-24T16:47:18.569Z,27.30
2017-08-24T16:49:44.698Z,27.20
2017-08-24T16:52:10.817Z,26.90
2017-08-24T16:54:36.944Z,26.50
2017-08-24T16:57:03.126Z,26.30
2017-08-24T16:59:29.512Z,26.10
2017-08-24T17:01:55.617Z,25.70
2017-08-24T17:04:21.823Z,25.70
2017-08-24T17:06:47.934Z,25.50
2017-08-24T17:09:14.025Z,25.40
2017-08-24T17:11:40.140Z,25.20
2017-08-24T17:14:06.225Z,25.10
2017-08-24T17:16:32.331Z,25.10
2017-08-24T17:18:58.422Z,25.10
2017-08-24T17:21:24.549Z,25.10
2017-08-24T17:23:50.778Z,24.90
2017-08-24T17:26:16.972Z,24.70
2017-08-24T17:28:43.096Z,24.60
2017-08-24T17:31:09.198Z,24.40
2017-08-24T17:33:35.355Z,24.30
2017-08-24T17:36:01.566Z,24.20
2017-08-24T17:38:27.710Z,24.00
2017-08-24T17:40:54.887Z,23.80
2017-08-24T17:43:21.064Z,23.70
2017-08-24T17:45:47.157Z,23.50
2017-08-24T17:48:13.251Z,23.50
2017-08-24T17:50:39.437Z,23.40
2017-08-24T17:53:05.571Z,23.30
2017-08-24T17:55:31.974Z,23.10
2017-08-24T17:57:58.109Z,23.00
2017-08-24T18:00:24.229Z,22.90
2017-08-24T18:02:50.461Z,22.80
2017-08-24T18:05:17.400Z,22.70
2017-08-24T18:07:43.524Z,22.50
2017-08-24T18:10:09.626Z,22.50
2017-08-24T18:12:35.726Z,22.40
2017-08-24T18:15:01.944Z,22.30
2017-08-24T18:17:28.048Z,22.10
2017-08-24T18:19:54.243Z,22.10
2017-08-24T18:22:20.391Z,21.90
2017-08-24T18:24:46.508Z,21.90
2017-08-24T18:27:12.666Z,21.80
2017-08-24T18:29:38.870Z,21.70
2017-08-24T18:32:04.973Z,21.60
2017-08-24T18:34:31.372Z,21.40
2017-08-24T18:36:57.512Z,21.40
2017-08-24T18:39:23.785Z,21.30
2017-08-24T18:41:49.967Z,21.20
2017-08-24T18:44:16.097Z,21.00
2017-08-24T18:46:42.203Z,21.00
2017-08-24T18:49:08.331Z,20.90
2017-08-24T18:51:34.390Z,20.80
2017-08-24T18:54:00.477Z,20.80
2017-08-24T18:56:26.748Z,20.70
2017-08-24T18:58:52.812Z,20.60
2017-08-24T19:01:18.942Z,20.60
2017-08-24T19:03:45.089Z,20.50
2017-08-24T19:06:11.170Z,20.40
2017-08-24T19:08:37.265Z,20.40
2017-08-24T19:11:05.381Z,20.30
2017-08-24T19:13:31.496Z,20.30
2017-08-24T19:15:57.636Z,20.30
2017-08-24T19:18:23.746Z,20.30
2017-08-24T19:20:49.867Z,20.30
2017-08-24T19:23:16.032Z,20.30
2017-08-24T19:25:42.146Z,20.20
2017-08-24T19:28:08.254Z,20.10
2017-08-24T19:30:34.370Z,19.90
2017-08-24T19:33:00.472Z,19.80
2017-08-24T19:35:26.604Z,19.80
2017-08-24T19:37:52.711Z,19.80
2017-08-24T19:40:18.815Z,19.80
2017-08-24T19:42:44.932Z,19.70
2017-08-24T19:45:11.248Z,19.70
2017-08-24T19:47:37.351Z,19.70
2017-08-24T19:50:03.461Z,19.70
2017-08-24T19:52:29.622Z,19.70
2017-08-24T19:54:55.688Z,19.70
2017-08-24T19:57:21.805Z,19.70
2017-08-24T19:59:47.945Z,19.60
2017-08-24T20:02:14.080Z,19.60
2017-08-24T20:04:40.197Z,19.60
2017-08-24T20:07:07.340Z,19.60
2017-08-24T20:09:33.435Z,19.70
2017-08-24T20:11:59.621Z,19.80
2017-08-24T20:14:25.758Z,19.90
2017-08-24T20:16:51.872Z,19.80
2017-08-24T20:19:18.010Z,19.80
2017-08-24T20:21:44.138Z,19.90
2017-08-24T20:24:10.263Z,20.00
2017-08-24T20:26:36.397Z,20.00
2017-08-24T20:29:02.515Z,19.90
2017-08-24T20:31:28.741Z,19.90
2017-08-24T20:33:54.837Z,19.90
2017-08-24T20:36:20.940Z,19.90
2017-08-24T20:38:47.094Z,20.00
2017-08-24T20:41:13.215Z,19.90
2017-08-24T20:43:39.312Z,19.90
2017-08-24T20:46:05.423Z,19.90
2017-08-24T20:48:31.517Z,19.80
2017-08-24T20:50:57.854Z,19.80
2017-08-24T20:53:23.975Z,19.90
2017-08-24T20:55:50.086Z,19.80
2017-08-24T20:58:16.206Z,19.80
2017-08-24T21:00:42.299Z,19.80
2017-08-24T21:03:08.452Z,19.80
2017-08-24T21:05:34.630Z,19.80
2017-08-24T21:08:00.732Z,19.80
2017-08-24T21:10:26.829Z,19.70
2017-08-24T21:12:52.951Z,19.60
2017-08-24T21:15:19.048Z,19.50
2017-08-24T21:17:45.118Z,19.40
2017-08-24T21:20:11.309Z,19.50
2017-08-24T21:22:37.432Z,19.40
2017-08-24T21:25:03.561Z,19.40
2017-08-24T21:27:29.641Z,19.40
2017-08-24T21:29:55.761Z,19.30
2017-08-24T21:32:21.843Z,19.30
2017-08-24T21:34:48.151Z,19.20
2017-08-24T21:37:14.239Z,19.10
2017-08-24T21:39:40.367Z,19.10
2017-08-24T21:42:06.529Z,19.00
2017-08-24T21:44:32.632Z,18.90
2017-08-24T21:46:58.718Z,18.90
2017-08-24T21:49:24.847Z,18.80
2017-08-24T21:51:50.980Z,18.80
2017-08-24T21:54:17.099Z,18.70
2017-08-24T21:56:43.214Z,18.60
2017-08-24T21:59:09.311Z,18.60
2017-08-24T22:01:35.470Z,18.50
2017-08-24T22:04:01.548Z,18.50
2017-08-24T22:06:27.657Z,18.50
2017-08-24T22:08:53.801Z,18.50
2017-08-24T22:11:19.918Z,18.60
2017-08-24T22:13:46.027Z,18.60
2017-08-24T22:16:12.155Z,18.60
2017-08-24T22:18:38.311Z,18.60
2017-08-24T22:21:04.369Z,18.70
2017-08-24T22:23:30.467Z,18.80
2017-08-24T22:25:56.583Z,18.90
2017-08-24T22:28:22.679Z,18.90
2017-08-24T22:30:48.841Z,18.90
2017-08-24T22:33:14.926Z,18.90
2017-08-24T22:35:41.029Z,18.80
2017-08-24T22:38:07.164Z,18.90
2017-08-24T22:40:33.308Z,18.80
2017-08-24T22:42:59.410Z,18.90
2017-08-24T22:45:25.559Z,18.90
2017-08-24T22:47:51.683Z,19.00
2017-08-24T22:50:17.785Z,19.00
2017-08-24T22:52:44.692Z,19.00
2017-08-24T22:55:16.954Z,18.90
2017-08-24T22:57:49.124Z,18.90
2017-08-24T23:00:21.278Z,18.90
2017-08-24T23:02:53.660Z,18.80
2017-08-24T23:05:19.760Z,18.80
2017-08-24T23:07:45.886Z,18.80
2017-08-24T23:10:12.005Z,18.80
2017-08-24T23:12:38.131Z,18.70
2017-08-24T23:15:04.220Z,18.70
2017-08-24T23:17:30.329Z,18.60
2017-08-24T23:19:56.470Z,18.60
2017-08-24T23:22:22.549Z,18.60
2017-08-24T23:24:48.733Z,18.60
2017-08-24T23:27:14.834Z,18.60
2017-08-24T23:29:40.919Z,18.70
2017-08-24T23:32:07.104Z,18.60
2017-08-24T23:34:33.209Z,18.70
2017-08-24T23:36:59.287Z,18.60
2017-08-24T23:39:25.383Z,18.60
2017-08-24T23:41:51.489Z,18.60
2017-08-24T23:44:17.641Z,18.50
2017-08-24T23:46:43.736Z,18.40
2017-08-24T23:49:09.893Z,18.40
2017-08-24T23:51:35.978Z,18.30
2017-08-24T23:54:02.113Z,18.20
2017-08-24T23:56:28.239Z,18.10
2017-08-24T23:58:54.345Z,18.10
